Time;durP1;ratioP1;P1;durP2;ratioP2;P2;SDS_P1;SDS_P2;PMS_P1;PMS_P2;Temp;Humidity;BMP_temperature;BMP_pressure;BME280_temperature;BME280_humidity;BME280_pressure;Samples;Min_cycle;Max_cycle;Signal;HPM_P1;HPM_P2
2024/01/29 00:02:12;;;;;;;181.57;34.35;;;;;;;-1.64;100.00;98109.16;5015462;28;20443;-71
2024/01/29 00:04:38;;;;;;;152.45;33.80;;;;;;;-1.57;100.00;98115.16;5019279;28;20073;-70
2024/01/29 00:07:03;;;;;;;134.90;33.13;;;;;;;-1.45;100.00;98106.97;5014347;28;20055;-69
2024/01/29 00:09:29;;;;;;;378.85;39.97;;;;;;;-1.71;100.00;98108.56;5018708;28;20050;-71
2024/01/29 00:11:54;;;;;;;227.93;34.00;;;;;;;-1.85;100.00;98103.59;5019857;28;20049;-70
2024/01/29 00:14:19;;;;;;;252.15;36.13;;;;;;;-1.86;100.00;98104.63;5013243;28;20033;-72
2024/01/29 00:16:46;;;;;;;266.80;35.80;;;;;;;-1.96;100.00;98109.91;5018780;28;20056;-71
2024/01/29 00:19:12;;;;;;;263.25;36.88;;;;;;;-1.98;100.00;98115.53;5015087;28;20065;-71
2024/01/29 00:21:37;;;;;;;104.95;31.60;;;;;;;-1.89;100.00;98117.75;5018202;28;20139;-72
2024/01/29 00:24:03;;;;;;;128.38;34.28;;;;;;;-2.01;100.00;98113.34;5014450;28;20043;-71
2024/01/29 00:26:28;;;;;;;285.33;36.35;;;;;;;-2.07;100.00;98106.28;5015999;28;20046;-70
2024/01/29 00:28:54;;;;;;;177.18;36.72;;;;;;;-2.05;100.00;98106.84;5020521;28;20045;-71
2024/01/29 00:31:22;;;;;;;280.25;39.50;;;;;;;-2.12;100.00;98109.72;5014989;28;20080;-71
2024/01/29 00:33:48;;;;;;;92.32;33.05;;;;;;;-2.03;100.00;98110.09;5019791;28;20079;-71
2024/01/29 00:36:16;;;;;;;274.58;37.47;;;;;;;-2.06;100.00;98115.97;5015665;28;20041;-71
2024/01/29 00:38:42;;;;;;;197.43;36.75;;;;;;;-2.05;100.00;98120.28;5037966;28;20057;-72
2024/01/29 00:41:08;;;;;;;105.40;34.13;;;;;;;-2.02;100.00;98109.03;5014667;28;20042;-72
2024/01/29 00:43:33;;;;;;;211.20;37.33;;;;;;;-2.01;100.00;98104.47;5019809;28;20488;-72
2024/01/29 00:45:58;;;;;;;217.65;35.15;;;;;;;-2.03;100.00;98107.41;5018524;28;20045;-72
2024/01/29 00:48:25;;;;;;;171.57;35.75;;;;;;;-2.00;100.00;98108.78;5029433;28;20049;-71
2024/01/29 00:50:55;;;;;;;216.65;36.17;;;;;;;-2.01;100.00;98107.97;5020975;28;20041;-71
2024/01/29 00:53:21;;;;;;;342.23;39.67;;;;;;;-2.06;100.00;98099.84;5015562;28;20579;-71
2024/01/29 00:55:46;;;;;;;334.73;40.03;;;;;;;-2.12;100.00;98112.41;5017643;28;20555;-70
2024/01/29 00:58:13;;;;;;;209.23;37.65;;;;;;;-2.08;100.00;98103.84;5014160;28;20065;-70
2024/01/29 01:00:39;;;;;;;245.52;38.88;;;;;;;-2.09;100.00;98102.22;5018864;28;20521;-68
2024/01/29 01:03:10;;;;;;;183.55;37.13;;;;;;;-2.13;100.00;98104.59;5014270;28;20136;-71
2024/01/29 01:05:36;;;;;;;331.85;41.35;;;;;;;-2.22;100.00;98106.91;5017810;28;20400;-70
2024/01/29 01:08:01;;;;;;;331.75;40.25;;;;;;;-2.25;100.00;98112.78;5018222;28;20049;-71
2024/01/29 01:10:27;;;;;;;194.13;37.40;;;;;;;-2.13;100.00;98109.97;5009185;28;20063;-72
2024/01/29 01:12:53;;;;;;;212.75;38.67;;;;;;;-2.12;100.00;98104.34;5018456;28;20136;-69
2024/01/29 01:15:19;;;;;;;292.77;41.40;;;;;;;-2.16;100.00;98113.97;5014028;28;20080;-69
2024/01/29 01:17:48;;;;;;;189.55;40.00;;;;;;;-2.17;100.00;98109.66;5018464;28;20045;-72
2024/01/29 01:20:14;;;;;;;300.50;43.37;;;;;;;-2.13;100.00;98108.09;4997987;28;20399;-71
2024/01/29 01:22:39;;;;;;;122.15;37.53;;;;;;;-2.06;100.00;98113.28;5024703;28;20042;-71
2024/01/29 01:25:05;;;;;;;272.95;41.33;;;;;;;-2.20;100.00;98112.03;5018144;28;20091;-69
2024/01/29 01:27:31;;;;;;;296.00;40.72;;;;;;;-2.25;100.00;98110.09;5021229;28;20140;-72
2024/01/29 01:29:56;;;;;;;195.80;38.28;;;;;;;-2.26;100.00;98116.50;5004207;28;20052;-71
2024/01/29 01:32:22;;;;;;;318.17;41.42;;;;;;;-2.25;100.00;98111.94;5017332;28;20107;-71
2024/01/29 01:34:47;;;;;;;176.85;40.15;;;;;;;-2.29;100.00;98114.31;5022933;28;20466;-72
2024/01/29 01:37:12;;;;;;;350.10;45.83;;;;;;;-2.34;100.00;98115.09;5018740;28;20041;-72
2024/01/29 01:39:38;;;;;;;186.35;40.85;;;;;;;-2.32;100.00;98118.31;5024330;28;20124;-71
2024/01/29 01:42:04;;;;;;;133.63;36.13;;;;;;;-2.25;100.00;98120.00;5014906;28;20145;-72
2024/01/29 01:44:30;;;;;;;173.88;39.83;;;;;;;-2.32;100.00;98117.53;5022565;28;20439;-71
2024/01/29 01:46:56;;;;;;;131.27;35.78;;;;;;;-2.26;100.00;98121.09;5022928;28;20109;-71
2024/01/29 01:49:22;;;;;;;108.18;35.20;;;;;;;-2.13;100.00;98118.00;5018273;28;20056;-71
2024/01/29 01:51:49;;;;;;;106.78;34.88;;;;;;;-1.86;100.00;98119.94;5023628;28;20042;-71
2024/01/29 01:54:15;;;;;;;132.82;36.92;;;;;;;-2.00;100.00;98124.88;5015803;28;20788;-71
2024/01/29 01:56:42;;;;;;;198.50;38.80;;;;;;;-1.98;100.00;98130.81;5022708;28;20049;-71
2024/01/29 01:59:10;;;;;;;122.25;35.90;;;;;;;-2.05;100.00;98125.66;5025893;28;20446;-70
2024/01/29 02:01:35;;;;;;;204.68;36.70;;;;;;;-2.17;100.00;98120.38;5022138;28;20087;-71
2024/01/29 02:04:01;;;;;;;87.95;33.05;;;;;;;-2.00;100.00;98122.19;5036086;28;20045;-72
2024/01/29 02:06:26;;;;;;;223.85;35.17;;;;;;;-2.08;100.00;98120.78;5029976;28;20042;-70
2024/01/29 02:08:53;;;;;;;249.75;35.97;;;;;;;-2.35;100.00;98126.06;5017759;28;20049;-71
2024/01/29 02:11:18;;;;;;;159.63;35.42;;;;;;;-2.44;100.00;98124.88;5016679;28;20476;-70
2024/01/29 02:13:43;;;;;;;210.45;36.85;;;;;;;-2.56;100.00;98124.94;5022146;28;20045;-70
2024/01/29 02:16:09;;;;;;;177.73;38.45;;;;;;;-2.60;100.00;98129.19;5014786;28;20514;-71
2024/01/29 02:18:34;;;;;;;195.35;37.55;;;;;;;-2.60;100.00;98124.63;5022658;28;20207;-70
2024/01/29 02:20:59;;;;;;;139.82;34.65;;;;;;;-2.49;100.00;98122.91;5030164;28;20041;-71
2024/01/29 02:23:25;;;;;;;232.88;38.42;;;;;;;-2.45;100.00;98121.34;5008933;28;20045;-71
2024/01/29 02:25:50;;;;;;;187.68;37.25;;;;;;;-2.48;100.00;98110.28;5020750;28;20136;-71
2024/01/29 02:28:16;;;;;;;248.00;39.03;;;;;;;-2.51;100.00;98123.16;5016984;28;20061;-71
2024/01/29 02:30:41;;;;;;;211.18;38.00;;;;;;;-2.52;100.00;98115.34;5021940;28;20111;-71
2024/01/29 02:33:07;;;;;;;171.68;36.88;;;;;;;-2.47;100.00;98115.41;5015584;28;20053;-72
2024/01/29 02:35:32;;;;;;;249.45;37.53;;;;;;;-2.48;100.00;98121.03;5020602;28;20344;-72
2024/01/29 02:37:58;;;;;;;200.15;36.40;;;;;;;-2.70;100.00;98121.81;5020295;28;20152;-72
2024/01/29 02:40:23;;;;;;;230.90;37.42;;;;;;;-2.85;100.00;98116.22;5016936;28;20057;-70
2024/01/29 02:42:48;;;;;;;311.83;39.70;;;;;;;-2.89;100.00;98107.84;5018476;28;20100;-71
2024/01/29 02:45:14;;;;;;;173.05;37.33;;;;;;;-2.81;100.00;98122.69;5015851;28;20184;-70
2024/01/29 02:47:39;;;;;;;166.27;35.17;;;;;;;-2.78;100.00;98120.34;5021132;28;20187;-71
2024/01/29 02:50:05;;;;;;;263.00;38.33;;;;;;;-2.86;100.00;98111.91;5016119;28;20041;-71
2024/01/29 02:52:30;;;;;;;214.93;37.20;;;;;;;-2.93;100.00;98110.22;5019567;28;20045;-71
2024/01/29 02:54:56;;;;;;;257.67;38.45;;;;;;;-2.92;100.00;98111.84;5021216;28;20049;-71
2024/01/29 02:57:23;;;;;;;241.20;39.03;;;;;;;-2.88;100.00;98107.59;5015845;28;20866;-70
2024/01/29 02:59:50;;;;;;;324.80;39.63;;;;;;;-2.88;100.00;98114.84;5021779;28;20045;-70
2024/01/29 03:02:15;;;;;;;167.05;35.80;;;;;;;-2.83;100.00;98114.09;5016058;28;20081;-71
2024/01/29 03:04:41;;;;;;;244.95;40.03;;;;;;;-2.86;100.00;98115.41;5021145;28;20470;-71
2024/01/29 03:07:06;;;;;;;114.25;35.75;;;;;;;-2.80;100.00;98113.63;5014244;28;20480;-71
2024/01/29 03:09:31;;;;;;;119.47;35.35;;;;;;;-2.69;100.00;98110.81;5030056;28;20636;-71
2024/01/29 03:11:57;;;;;;;156.00;36.25;;;;;;;-2.70;100.00;98116.47;5021679;28;20076;-71
2024/01/29 03:14:22;;;;;;;223.00;36.38;;;;;;;-2.80;100.00;98117.09;5017569;28;20559;-71
2024/01/29 03:16:47;;;;;;;214.27;36.38;;;;;;;-2.76;100.00;98120.09;5021189;28;20056;-72
2024/01/29 03:19:13;;;;;;;206.25;37.35;;;;;;;-2.73;100.00;98116.94;5016580;28;20045;-71
2024/01/29 03:21:38;;;;;;;321.13;40.63;;;;;;;-2.75;100.00;98117.19;5022021;28;20056;-72
2024/01/29 03:24:04;;;;;;;316.65;39.53;;;;;;;-2.67;100.00;98117.81;5015705;28;20725;-70
2024/01/29 03:26:29;;;;;;;253.65;39.03;;;;;;;-2.85;100.00;98110.84;5021227;28;20148;-70
2024/01/29 03:28:55;;;;;;;235.55;38.35;;;;;;;-2.93;100.00;98104.03;5021568;28;20056;-70
2024/01/29 03:31:20;;;;;;;158.90;35.20;;;;;;;-2.94;100.00;98097.84;5016596;28;20053;-71
2024/01/29 03:33:46;;;;;;;188.85;36.40;;;;;;;-2.90;100.00;98104.38;5019534;28;20049;-71
2024/01/29 03:36:11;;;;;;;222.73;36.95;;;;;;;-2.86;100.00;98106.53;5016387;28;20136;-71
2024/01/29 03:38:36;;;;;;;194.07;37.67;;;;;;;-2.78;100.00;98117.66;5019551;28;20053;-71
2024/01/29 03:41:03;;;;;;;233.18;38.55;;;;;;;-2.83;100.00;98117.59;5019270;28;20511;-71
2024/01/29 03:43:29;;;;;;;354.73;41.30;;;;;;;-2.88;100.00;98120.22;5020703;28;20041;-72
2024/01/29 03:45:54;;;;;;;235.00;38.67;;;;;;;-2.87;100.00;98119.13;5020707;28;20618;-69
2024/01/29 03:48:20;;;;;;;271.48;38.80;;;;;;;-2.80;100.00;98121.66;5014437;28;20057;-71
2024/01/29 03:50:46;;;;;;;244.18;38.45;;;;;;;-2.87;100.00;98124.50;5023242;28;20120;-72
2024/01/29 03:53:11;;;;;;;197.23;37.22;;;;;;;-2.83;100.00;98127.50;5019658;28;20045;-71
2024/01/29 03:55:37;;;;;;;253.40;37.67;;;;;;;-2.76;100.00;98117.41;5021109;28;20085;-71
2024/01/29 03:58:02;;;;;;;104.80;33.78;;;;;;;-2.76;100.00;98120.09;5017165;28;20124;-71
2024/01/29 04:00:30;;;;;;;122.90;34.38;;;;;;;-2.63;100.00;98118.94;5002866;28;20395;-71
2024/01/29 04:02:56;;;;;;;331.83;41.08;;;;;;;-2.76;100.00;98120.09;5036826;28;20060;-70
2024/01/29 04:05:22;;;;;;;251.55;40.33;;;;;;;-2.86;100.00;98126.13;5015709;28;20140;-75
2024/01/29 04:07:48;;;;;;;323.60;40.33;;;;;;;-2.88;100.00;98115.66;5020238;28;20136;-71
2024/01/29 04:10:15;;;;;;;264.52;39.30;;;;;;;-2.88;100.00;98118.34;5014300;28;20484;-70
2024/01/29 04:12:42;;;;;;;227.70;37.50;;;;;;;-2.79;100.00;98115.22;5019211;28;20132;-71
2024/01/29 04:15:07;;;;;;;200.02;39.30;;;;;;;-2.80;100.00;98122.47;5014513;28;20165;-70
2024/01/29 04:17:33;;;;;;;247.85;38.17;;;;;;;-2.80;100.00;98122.47;5018858;28;20585;-71
2024/01/29 04:19:59;;;;;;;125.72;34.75;;;;;;;-2.71;100.00;98117.50;5013835;28;20073;-71
2024/01/29 04:22:25;;;;;;;134.77;35.20;;;;;;;-2.65;100.00;98127.25;5013579;28;20132;-69
2024/01/29 04:24:50;;;;;;;133.85;34.95;;;;;;;-2.34;100.00;98117.75;5018794;28;20046;-71
2024/01/29 04:27:16;;;;;;;258.60;39.45;;;;;;;-2.25;100.00;98112.78;5016767;28;20089;-71
2024/01/29 04:29:41;;;;;;;110.45;33.58;;;;;;;-2.28;100.00;98117.84;5018416;28;20053;-71
2024/01/29 04:32:07;;;;;;;371.05;43.05;;;;;;;-2.37;100.00;98115.56;5013231;28;20080;-71
2024/01/29 04:34:32;;;;;;;198.18;35.42;;;;;;;-2.41;100.00;98119.81;5016270;28;20041;-71
2024/01/29 04:36:57;;;;;;;114.35;34.80;;;;;;;-2.28;100.00;98107.91;5020209;28;20048;-71
2024/01/29 04:39:23;;;;;;;169.55;34.47;;;;;;;-2.03;100.00;98118.16;5013647;28;20370;-70
2024/01/29 04:41:48;;;;;;;112.88;31.85;;;;;;;-1.96;100.00;98118.78;5018199;28;20060;-70
2024/01/29 04:44:17;;;;;;;114.85;31.25;;;;;;;-1.80;100.00;98108.19;5009938;28;20049;-70
2024/01/29 04:46:42;;;;;;;91.32;30.63;;;;;;;-1.77;100.00;98108.50;5019273;28;20041;-70
2024/01/29 04:49:07;;;;;;;214.25;31.08;;;;;;;-1.88;100.00;98111.34;5014382;28;20451;-70
2024/01/29 04:51:34;;;;;;;95.22;30.63;;;;;;;-1.82;100.00;98113.84;5018697;28;20671;-70
2024/01/29 04:53:59;;;;;;;94.65;29.00;;;;;;;-1.68;100.00;98111.56;5019082;28;20409;-71
2024/01/29 04:56:25;;;;;;;130.27;29.70;;;;;;;-1.57;100.00;98112.47;5014691;28;20049;-71
2024/01/29 04:58:50;;;;;;;231.75;32.03;;;;;;;-1.61;100.00;98114.84;5019755;28;20586;-71
2024/01/29 05:01:16;;;;;;;236.63;34.10;;;;;;;-1.85;100.00;98114.34;5015542;28;20030;-71
2024/01/29 05:03:41;;;;;;;337.88;36.45;;;;;;;-2.18;100.00;98116.09;5021000;28;20192;-71
2024/01/29 05:06:07;;;;;;;344.80;37.97;;;;;;;-2.25;100.00;98110.09;5012874;28;20057;-71
2024/01/29 05:08:32;;;;;;;196.32;31.92;;;;;;;-2.46;100.00;98108.19;5018299;28;20088;-71
2024/01/29 05:10:58;;;;;;;142.20;31.95;;;;;;;-2.53;100.00;98111.84;5020535;28;20100;-71
2024/01/29 05:13:23;;;;;;;226.43;34.95;;;;;;;-2.48;100.00;98118.34;5014880;28;20484;-70
2024/01/29 05:15:48;;;;;;;143.77;30.35;;;;;;;-2.42;100.00;98107.44;5034903;28;20056;-71
2024/01/29 05:18:14;;;;;;;84.80;27.52;;;;;;;-2.29;100.00;98117.00;5012402;28;20041;-71
2024/01/29 05:20:39;;;;;;;88.63;29.60;;;;;;;-2.09;100.00;98113.75;5018881;28;20137;-71
2024/01/29 05:23:05;;;;;;;87.50;31.73;;;;;;;-1.89;100.00;98117.75;5015064;28;20045;-72
2024/01/29 05:25:31;;;;;;;152.35;33.00;;;;;;;-1.92;100.00;98114.50;5019443;28;20375;-71
2024/01/29 05:27:56;;;;;;;107.05;29.42;;;;;;;-1.97;100.00;98111.75;5026713;28;20051;-71
2024/01/29 05:30:23;;;;;;;168.15;31.15;;;;;;;-1.98;100.00;98117.38;5011510;28;20148;-71
2024/01/29 05:32:48;;;;;;;86.63;28.58;;;;;;;-2.14;100.00;98119.91;5019446;28;20395;-71
2024/01/29 05:35:14;;;;;;;293.85;34.35;;;;;;;-2.32;100.00;98115.63;5012507;28;20041;-71
2024/01/29 05:37:39;;;;;;;75.82;28.05;;;;;;;-2.21;100.00;98118.47;5017821;28;20052;-71
2024/01/29 05:40:05;;;;;;;82.30;29.20;;;;;;;-2.30;100.00;98120.75;5014887;28;20511;-72
2024/01/29 05:42:31;;;;;;;248.45;32.83;;;;;;;-2.75;100.00;98116.38;5018334;28;20115;-71
2024/01/29 05:44:56;;;;;;;248.98;33.30;;;;;;;-2.88;100.00;98122.91;5019130;28;20064;-70
2024/01/29 05:47:23;;;;;;;231.30;33.05;;;;;;;-2.94;100.00;98115.81;5028714;28;20522;-70
2024/01/29 05:49:48;;;;;;;292.33;34.47;;;;;;;-2.98;100.00;98117.38;5019106;28;20050;-71
2024/01/29 05:52:14;;;;;;;205.88;33.00;;;;;;;-2.95;100.00;98125.72;5013093;28;20080;-71
2024/01/29 05:54:39;;;;;;;288.35;34.55;;;;;;;-2.96;100.00;98128.66;5018461;28;20045;-71
2024/01/29 05:57:06;;;;;;;113.60;28.55;;;;;;;-2.80;100.00;98125.16;4995488;28;20061;-71
2024/01/29 05:59:31;;;;;;;167.30;31.13;;;;;;;-2.63;100.00;98130.50;5018282;28;20049;-70
2024/01/29 06:01:57;;;;;;;219.30;33.67;;;;;;;-2.72;100.00;98124.75;5017877;28;20099;-71
2024/01/29 06:04:22;;;;;;;151.98;30.77;;;;;;;-2.72;100.00;98127.44;5013777;28;20133;-70
2024/01/29 06:06:47;;;;;;;192.30;31.52;;;;;;;-2.72;100.00;98123.91;5018085;28;20049;-71
2024/01/29 06:09:13;;;;;;;174.32;29.85;;;;;;;-2.62;100.00;98120.59;5014309;28;20050;-71
2024/01/29 06:11:38;;;;;;;212.20;30.42;;;;;;;-2.74;100.00;98117.97;5018742;28;20069;-70
2024/01/29 06:14:04;;;;;;;210.80;30.30;;;;;;;-2.83;100.00;98119.47;5017176;28;20465;-71
2024/01/29 06:16:29;;;;;;;91.35;26.85;;;;;;;-2.77;100.00;98121.19;5021178;28;20106;-70
2024/01/29 06:18:55;;;;;;;174.00;27.42;;;;;;;-2.69;100.00;98123.44;5020155;28;20530;-70
2024/01/29 06:21:24;;;;;;;337.45;32.08;;;;;;;-2.80;100.00;98127.81;5016534;28;20317;-69
2024/01/29 06:23:49;;;;;;;290.90;31.13;;;;;;;-2.66;100.00;98127.50;5027962;28;20144;-70
2024/01/29 06:26:15;;;;;;;175.73;27.92;;;;;;;-2.79;100.00;98132.16;5019092;28;20124;-70
2024/01/29 06:28:44;;;;;;;211.70;30.30;;;;;;;-2.70;100.00;98138.72;5022336;28;20049;-70
2024/01/29 06:31:09;;;;;;;229.83;34.37;;;;;;;-2.72;100.00;98130.09;5016566;28;20052;-71
2024/01/29 06:33:35;;;;;;;145.85;26.33;;;;;;;-2.74;100.00;98131.41;5021262;28;20061;-72
2024/01/29 06:36:02;;;;;;;259.77;29.88;;;;;;;-2.90;100.00;98135.69;5021350;28;20517;-73
2024/01/29 06:38:28;;;;;;;94.43;25.05;;;;;;;-2.99;100.00;98134.50;5020730;28;20045;-71
2024/01/29 06:40:53;;;;;;;106.28;25.92;;;;;;;-3.02;100.00;98126.94;5019485;28;20107;-71
2024/01/29 06:43:18;;;;;;;213.18;29.10;;;;;;;-3.10;100.00;98136.19;5015358;28;20096;-72
2024/01/29 06:45:44;;;;;;;194.57;29.52;;;;;;;-3.10;100.00;98137.03;5021771;28;20072;-71
2024/01/29 06:48:09;;;;;;;189.93;28.95;;;;;;;-3.27;100.00;98133.50;5014807;28;20375;-71
2024/01/29 06:50:35;;;;;;;168.80;28.38;;;;;;;-3.34;100.00;98141.69;5022023;28;20052;-71
2024/01/29 06:53:01;;;;;;;159.48;26.15;;;;;;;-3.40;100.00;98129.28;5031757;28;20052;-71
2024/01/29 06:55:26;;;;;;;181.10;27.67;;;;;;;-3.48;100.00;98130.44;5019105;28;20049;-72
2024/01/29 06:57:51;;;;;;;75.00;24.73;;;;;;;-3.33;100.00;98137.13;5006351;28;20122;-73
2024/01/29 07:00:17;;;;;;;121.38;26.73;;;;;;;-3.19;100.00;98138.44;5016752;28;20060;-73
2024/01/29 07:02:42;;;;;;;147.23;27.30;;;;;;;-3.32;100.00;98134.22;5021536;28;20060;-74
2024/01/29 07:05:08;;;;;;;106.88;25.05;;;;;;;-3.21;100.00;98139.75;5016882;28;20057;-74
2024/01/29 07:07:33;;;;;;;123.60;26.65;;;;;;;-3.48;100.00;98149.19;5002319;28;20050;-74
2024/01/29 07:09:59;;;;;;;87.13;25.50;;;;;;;-3.41;100.00;98143.72;5021381;28;20047;-74
2024/01/29 07:12:24;;;;;;;176.82;26.70;;;;;;;-3.48;100.00;98151.88;5016986;28;20395;-73
2024/01/29 07:14:52;;;;;;;154.70;26.02;;;;;;;-3.54;100.00;98158.22;5020412;28;20045;-73
2024/01/29 07:17:17;;;;;;;131.60;26.50;;;;;;;-3.46;100.00;98151.66;5014028;28;20041;-74
2024/01/29 07:19:44;;;;;;;93.65;26.23;;;;;;;-3.28;100.00;98155.97;5018905;28;20051;-73
2024/01/29 07:22:14;;;;;;;77.05;23.83;;;;;;;-3.28;100.00;98159.50;5016303;28;20418;-73
2024/01/29 07:24:40;;;;;;;130.63;25.98;;;;;;;-3.32;100.00;98155.66;5020886;28;20128;-73
2024/01/29 07:27:05;;;;;;;130.88;27.10;;;;;;;-3.19;100.00;98156.41;5016537;28;20041;-74
2024/01/29 07:29:31;;;;;;;131.25;26.23;;;;;;;-3.10;100.00;98152.28;5019425;28;20515;-73
2024/01/29 07:31:58;;;;;;;248.38;34.72;;;;;;;-3.28;100.00;98156.81;5002001;28;20046;-74
2024/01/29 07:34:23;;;;;;;189.52;29.13;;;;;;;-3.33;100.00;98158.56;5016353;28;20150;-73
2024/01/29 07:36:49;;;;;;;66.43;23.40;;;;;;;-3.22;100.00;98160.41;5002735;28;20537;-75
2024/01/29 07:39:14;;;;;;;309.60;35.58;;;;;;;-3.26;100.00;98159.22;5014341;28;20049;-73
2024/01/29 07:41:39;;;;;;;144.82;26.38;;;;;;;-3.24;100.00;98154.47;5021406;28;20069;-73
2024/01/29 07:44:05;;;;;;;208.88;28.02;;;;;;;-3.24;100.00;98161.69;4996917;28;20045;-75
2024/01/29 07:46:31;;;;;;;167.82;28.15;;;;;;;-3.27;100.00;98157.63;5019306;28;20045;-73
2024/01/29 07:49:01;;;;;;;85.05;25.88;;;;;;;-3.17;100.00;98165.00;5018780;28;20114;-73
2024/01/29 07:51:27;;;;;;;104.32;24.30;;;;;;;-2.88;100.00;98158.56;5014759;28;20849;-74
2024/01/29 07:53:53;;;;;;;156.40;24.67;;;;;;;-2.75;100.00;98167.34;5012253;28;20053;-73
2024/01/29 07:56:18;;;;;;;144.90;25.38;;;;;;;-2.86;100.00;98173.56;5015288;28;20052;-72
2024/01/29 07:58:44;;;;;;;532.92;141.23;;;;;;;-2.78;100.00;98171.28;5019001;28;20041;-72
2024/01/29 08:01:09;;;;;;;189.98;46.85;;;;;;;-2.68;100.00;98176.03;5015527;28;20041;-73
2024/01/29 08:03:34;;;;;;;80.38;26.55;;;;;;;-2.63;100.00;98177.97;5020789;28;20679;-73
2024/01/29 08:06:00;;;;;;;133.00;31.75;;;;;;;-2.58;100.00;98168.13;5019615;28;20044;-71
2024/01/29 08:08:25;;;;;;;106.32;26.52;;;;;;;-2.61;100.00;98171.31;5012319;28;20053;-71
2024/01/29 08:10:50;;;;;;;78.45;26.35;;;;;;;-2.52;100.00;98172.53;5020145;28;20092;-70
2024/01/29 08:13:16;;;;;;;84.82;28.67;;;;;;;-2.26;100.00;98164.03;5014468;28;20042;-71
2024/01/29 08:15:41;;;;;;;148.80;30.65;;;;;;;-2.24;100.00;98169.94;5014304;28;20045;-71
2024/01/29 08:18:06;;;;;;;182.30;24.08;;;;;;;-2.74;100.00;98169.78;5008897;28;20065;-71
2024/01/29 08:20:32;;;;;;;212.60;27.85;;;;;;;-2.87;100.00;98172.75;5015228;28;20065;-71
2024/01/29 08:22:58;;;;;;;207.05;23.60;;;;;;;-3.03;100.00;98170.88;5019393;28;20041;-71
2024/01/29 08:25:25;;;;;;;204.20;23.98;;;;;;;-2.94;100.00;98177.47;5013717;28;20167;-71
2024/01/29 08:27:51;;;;;;;133.05;24.52;;;;;;;-2.90;100.00;98176.75;5019126;28;20048;-71
2024/01/29 08:30:16;;;;;;;84.72;29.10;;;;;;;-2.83;100.00;98176.56;5012999;28;20053;-71
2024/01/29 08:32:43;;;;;;;119.05;26.80;;;;;;;-2.66;100.00;98176.59;5009726;28;20127;-72
2024/01/29 08:35:10;;;;;;;152.18;24.15;;;;;;;-2.41;100.00;98176.16;5013348;28;20037;-72
2024/01/29 08:37:35;;;;;;;67.43;21.65;;;;;;;-2.28;100.00;98176.88;5019438;28;20203;-73
2024/01/29 08:40:02;;;;;;;63.13;20.83;;;;;;;-2.32;100.00;98176.56;5018691;28;20462;-73
2024/01/29 08:42:28;;;;;;;152.63;24.42;;;;;;;-2.41;100.00;98173.47;5015750;28;20506;-72
2024/01/29 08:44:56;;;;;;;81.22;21.33;;;;;;;-2.27;100.00;98173.91;5018924;28;20049;-71
2024/01/29 08:47:22;;;;;;;71.43;23.42;;;;;;;-2.11;100.00;98169.59;5013745;28;20068;-73
2024/01/29 08:49:47;;;;;;;163.80;32.75;;;;;;;-1.95;100.00;98166.03;5018652;28;20045;-71
2024/01/29 08:52:13;;;;;;;78.57;25.02;;;;;;;-1.75;100.00;98172.72;5014975;28;20075;-72
2024/01/29 08:54:38;;;;;;;123.90;44.33;;;;;;;-1.67;100.00;98169.59;5019294;28;20030;-70
2024/01/29 08:57:04;;;;;;;126.93;26.73;;;;;;;-1.66;100.00;98171.22;5013703;28;20045;-73
2024/01/29 08:59:31;;;;;;;77.43;24.38;;;;;;;-1.56;100.00;98173.22;5017812;28;20553;-73
2024/01/29 09:01:57;;;;;;;68.22;21.63;;;;;;;-1.33;100.00;98168.59;5019789;28;20048;-72
2024/01/29 09:04:23;;;;;;;63.08;22.20;;;;;;;-1.24;100.00;98167.91;5014188;28;20053;-72
2024/01/29 09:06:49;;;;;;;63.75;22.45;;;;;;;-1.11;100.00;98168.56;5019708;28;20040;-72
2024/01/29 09:09:14;;;;;;;65.25;22.98;;;;;;;-0.94;100.00;98168.44;5014165;28;20038;-72
2024/01/29 09:11:40;;;;;;;59.67;22.50;;;;;;;-0.85;100.00;98173.09;5016360;28;20572;-72
2024/01/29 09:14:05;;;;;;;61.45;22.98;;;;;;;-0.77;100.00;98179.91;5013546;28;20517;-73
2024/01/29 09:16:32;;;;;;;61.33;22.27;;;;;;;-0.67;100.00;98179.97;5015726;28;20135;-72
2024/01/29 09:18:58;;;;;;;50.22;20.77;;;;;;;-0.64;100.00;98184.03;5018153;28;20065;-71
2024/01/29 09:21:24;;;;;;;53.40;22.52;;;;;;;-0.67;100.00;98179.97;5013242;28;20128;-71
2024/01/29 09:23:49;;;;;;;46.42;19.60;;;;;;;-0.57;100.00;98183.81;5023129;28;20121;-71
2024/01/29 09:26:15;;;;;;;63.40;19.88;;;;;;;-0.64;100.00;98176.75;5017727;28;20129;-70
2024/01/29 09:28:41;;;;;;;42.53;18.45;;;;;;;-0.56;100.00;98183.53;5017332;28;20156;-71
2024/01/29 09:31:07;;;;;;;44.67;19.52;;;;;;;-0.43;100.00;98185.00;5013644;28;20073;-71
2024/01/29 09:33:32;;;;;;;51.00;19.40;;;;;;;-0.43;100.00;98187.69;5018206;28;20136;-71
2024/01/29 09:35:58;;;;;;;46.83;19.35;;;;;;;-0.44;100.00;98188.75;5018045;28;20044;-71
2024/01/29 09:38:23;;;;;;;48.72;20.52;;;;;;;-0.26;100.00;98187.53;5013648;28;20050;-71
2024/01/29 09:40:51;;;;;;;53.35;20.20;;;;;;;-0.28;100.00;98203.13;5024025;28;20045;-70
2024/01/29 09:43:17;;;;;;;51.00;21.13;;;;;;;-0.56;100.00;98188.13;5022159;28;20063;-71
2024/01/29 09:45:43;;;;;;;52.20;21.95;;;;;;;-0.27;100.00;98184.03;5020244;28;20049;-71
2024/01/29 09:48:12;;;;;;;45.70;19.48;;;;;;;-0.06;100.00;98182.25;5015970;28;20128;-69
2024/01/29 09:50:40;;;;;;;40.25;19.02;;;;;;;0.17;100.00;98188.31;5021142;28;20050;-71
2024/01/29 09:53:07;;;;;;;44.78;19.67;;;;;;;0.23;100.00;98186.44;5033030;28;20514;-72
2024/01/29 09:55:32;;;;;;;42.25;18.45;;;;;;;0.27;100.00;98187.53;5019998;28;20804;-69
2024/01/29 09:57:58;;;;;;;47.97;19.42;;;;;;;0.17;100.00;98174.84;5022746;28;20053;-70
2024/01/29 10:00:23;;;;;;;47.72;19.90;;;;;;;0.33;100.00;98173.03;5017514;28;20535;-72
2024/01/29 10:02:53;;;;;;;41.42;17.88;;;;;;;0.44;100.00;98166.59;5021967;28;20042;-71
2024/01/29 10:05:18;;;;;;;35.42;16.48;;;;;;;0.60;100.00;98166.63;5016502;28;20533;-70
2024/01/29 10:07:44;;;;;;;39.08;18.83;;;;;;;0.67;100.00;98162.59;5021287;28;20136;-70
2024/01/29 10:10:10;;;;;;;36.42;16.67;;;;;;;0.73;100.00;98156.13;5016032;28;20041;-71
2024/01/29 10:12:36;;;;;;;37.13;17.45;;;;;;;0.82;100.00;98152.94;5022311;28;20471;-71
2024/01/29 10:15:02;;;;;;;35.58;17.20;;;;;;;0.84;100.00;98150.78;5018185;28;20041;-71
2024/01/29 10:17:27;;;;;;;37.92;17.25;;;;;;;0.92;100.00;98150.25;5019600;28;20049;-71
2024/01/29 10:19:53;;;;;;;36.15;16.67;;;;;;;0.84;100.00;98148.88;5019823;28;20064;-71
2024/01/29 10:22:24;;;;;;;38.47;16.42;;;;;;;0.93;100.00;98152.66;5016963;28;20119;-71
2024/01/29 10:25:05;;;;;;;30.98;15.95;;;;;;;0.89;100.00;98154.28;5012919;28;20141;-70
2024/01/29 10:27:31;;;;;;;33.80;16.45;;;;;;;0.89;100.00;98142.69;5020492;28;20107;-71
2024/01/29 10:29:57;;;;;;;31.92;16.27;;;;;;;0.89;100.00;98146.19;5021001;28;20132;-71
2024/01/29 10:32:23;;;;;;;40.30;17.88;;;;;;;1.04;100.00;98148.06;5016545;28;20049;-71
2024/01/29 10:34:48;;;;;;;37.75;16.60;;;;;;;0.66;100.00;98146.69;5021200;28;20045;-70
2024/01/29 10:37:20;;;;;;;32.28;16.73;;;;;;;1.00;100.00;98136.22;5015970;28;20099;-71
2024/01/29 10:39:46;;;;;;;42.88;15.43;;;;;;;0.95;100.00;98139.75;5020733;28;20037;-71
2024/01/29 10:42:12;;;;;;;47.92;17.60;;;;;;;0.89;100.00;98140.00;5016229;28;20136;-71
2024/01/29 10:44:41;;;;;;;37.30;17.58;;;;;;;0.95;100.00;98137.03;5019647;28;20251;-70
2024/01/29 10:47:16;;;;;;;56.83;16.63;;;;;;;0.93;100.00;98132.97;5015834;28;20503;-71
2024/01/29 10:49:43;;;;;;;42.38;16.75;;;;;;;0.75;100.00;98131.59;5022032;28;20063;-71
2024/01/29 10:52:09;;;;;;;36.95;17.88;;;;;;;1.15;100.00;98135.41;5017462;28;20048;-71
2024/01/29 10:54:35;;;;;;;31.92;16.38;;;;;;;1.36;100.00;98133.50;5019808;28;20069;-71
2024/01/29 10:57:02;;;;;;;34.30;17.70;;;;;;;1.52;100.00;98121.59;5019813;28;20123;-71
2024/01/29 10:59:28;;;;;;;31.88;16.50;;;;;;;1.68;100.00;98116.19;5033349;28;20557;-70